sensor_id;sensor_type;location;lat;lon;timestamp;pressure;altitude;pressure_sealevel;temperature;humidity
46690;BME280;32423;45.398;10.874;2023-01-29T00:01:07;101550.06;;;11.63;59.58
46690;BME280;32423;45.398;10.874;2023-01-29T00:04:02;101549.47;;;11.66;57.89
46690;BME280;32423;45.398;10.874;2023-01-29T00:06:56;101548.41;;;11.48;51.76
46690;BME280;32423;45.398;10.874;2023-01-29T00:09:51;101550.66;;;11.59;56.51
46690;BME280;32423;45.398;10.874;2023-01-29T00:12:45;101541.91;;;11.63;58.06
46690;BME280;32423;45.398;10.874;2023-01-29T00:15:40;101545.22;;;11.59;54.47
46690;BME280;32423;45.398;10.874;2023-01-29T00:18:36;101536.88;;;11.24;48.51
46690;BME280;32423;45.398;10.874;2023-01-29T00:21:31;101541.84;;;11.22;48.82
46690;BME280;32423;45.398;10.874;2023-01-29T00:24:25;101529.06;;;11.03;48.87
46690;BME280;32423;45.398;10.874;2023-01-29T00:27:17;101537.41;;;10.93;43.94
46690;BME280;32423;45.398;10.874;2023-01-29T00:30:13;101537.44;;;10.75;43.23
46690;BME280;32423;45.398;10.874;2023-01-29T00:33:09;101549.28;;;10.65;42.64
46690;BME280;32423;45.398;10.874;2023-01-29T00:36:09;101549.31;;;10.97;50.95
46690;BME280;32423;45.398;10.874;2023-01-29T00:39:04;101548.19;;;10.66;42.50
46690;BME280;32423;45.398;10.874;2023-01-29T00:42:01;101545.09;;;10.54;41.44
46690;BME280;32423;45.398;10.874;2023-01-29T00:45:13;101545.75;;;10.64;44.17
46690;BME280;32423;45.398;10.874;2023-01-29T00:48:05;101545.25;;;10.44;41.76
46690;BME280;32423;45.398;10.874;2023-01-29T00:50:59;101550.53;;;10.54;44.31
46690;BME280;32423;45.398;10.874;2023-01-29T00:53:51;101556.56;;;10.69;48.00
46690;BME280;32423;45.398;10.874;2023-01-29T00:56:46;101560.25;;;10.92;55.13
46690;BME280;32423;45.398;10.874;2023-01-29T00:59:40;101563.44;;;10.99;53.13
46690;BME280;32423;45.398;10.874;2023-01-29T01:02:35;101557.38;;;10.70;47.18
46690;BME280;32423;45.398;10.874;2023-01-29T01:05:43;101566.91;;;10.86;50.87
46690;BME280;32423;45.398;10.874;2023-01-29T01:08:38;101560.53;;;10.58;45.12
46690;BME280;32423;45.398;10.874;2023-01-29T01:11:49;101559.88;;;10.66;48.15
46690;BME280;32423;45.398;10.874;2023-01-29T01:14:43;101563.34;;;11.04;55.17
46690;BME280;32423;45.398;10.874;2023-01-29T01:17:35;101570.72;;;11.18;59.22
46690;BME280;32423;45.398;10.874;2023-01-29T01:20:29;101575.44;;;11.31;61.08
46690;BME280;32423;45.398;10.874;2023-01-29T01:23:25;101576.44;;;11.35;60.17
46690;BME280;32423;45.398;10.874;2023-01-29T01:26:17;101567.31;;;11.12;52.15
46690;BME280;32423;45.398;10.874;2023-01-29T01:29:11;101566.16;;;11.32;57.58
46690;BME280;32423;45.398;10.874;2023-01-29T01:32:07;101568.50;;;11.06;51.40
46690;BME280;32423;45.398;10.874;2023-01-29T01:35:01;101569.88;;;11.22;56.24
46690;BME280;32423;45.398;10.874;2023-01-29T01:37:51;101572.59;;;11.22;55.86
46690;BME280;32423;45.398;10.874;2023-01-29T01:40:42;101576.53;;;11.30;56.65
46690;BME280;32423;45.398;10.874;2023-01-29T01:43:52;101574.31;;;11.32;56.57
46690;BME280;32423;45.398;10.874;2023-01-29T01:46:45;101570.44;;;11.19;53.83
46690;BME280;32423;45.398;10.874;2023-01-29T01:49:37;101569.22;;;11.11;54.13
46690;BME280;32423;45.398;10.874;2023-01-29T01:52:26;101569.16;;;11.30;58.33
46690;BME280;32423;45.398;10.874;2023-01-29T01:55:19;101561.44;;;11.05;48.22
46690;BME280;32423;45.398;10.874;2023-01-29T01:58:12;101567.56;;;10.78;44.86
46690;BME280;32423;45.398;10.874;2023-01-29T02:01:06;101565.69;;;10.60;46.16
46690;BME280;32423;45.398;10.874;2023-01-29T02:03:59;101559.44;;;10.59;47.51
46690;BME280;32423;45.398;10.874;2023-01-29T02:07:08;101563.53;;;10.57;47.58
46690;BME280;32423;45.398;10.874;2023-01-29T02:10:19;101555.66;;;10.74;53.34
46690;BME280;32423;45.398;10.874;2023-01-29T02:13:12;101562.03;;;11.02;58.39
46690;BME280;32423;45.398;10.874;2023-01-29T02:16:04;101564.53;;;10.98;56.59
46690;BME280;32423;45.398;10.874;2023-01-29T02:18:56;101570.41;;;11.05;58.22
46690;BME280;32423;45.398;10.874;2023-01-29T02:21:49;101574.50;;;11.22;62.95
46690;BME280;32423;45.398;10.874;2023-01-29T02:24:44;101579.34;;;11.25;61.77
46690;BME280;32423;45.398;10.874;2023-01-29T02:30:45;101584.44;;;11.12;55.99
46690;BME280;32423;45.398;10.874;2023-01-29T02:34:27;101582.75;;;11.17;59.55
46690;BME280;32423;45.398;10.874;2023-01-29T02:39:53;101586.19;;;11.22;60.99
46690;BME280;32423;45.398;10.874;2023-01-29T02:46:12;101582.84;;;11.11;56.17
46690;BME280;32423;45.398;10.874;2023-01-29T02:49:48;101587.75;;;11.09;56.86
46690;BME280;32423;45.398;10.874;2023-01-29T02:52:19;101591.94;;;11.21;62.70
46690;BME280;32423;45.398;10.874;2023-01-29T02:55:12;101584.50;;;10.75;46.76
46690;BME280;32423;45.398;10.874;2023-01-29T02:58:13;101577.28;;;10.47;45.23
46690;BME280;32423;45.398;10.874;2023-01-29T03:01:19;101581.00;;;10.32;42.86
46690;BME280;32423;45.398;10.874;2023-01-29T03:04:13;101576.78;;;10.21;45.08
46690;BME280;32423;45.398;10.874;2023-01-29T03:07:09;101575.25;;;10.15;43.61
46690;BME280;32423;45.398;10.874;2023-01-29T03:10:22;101568.16;;;10.19;48.73
46690;BME280;32423;45.398;10.874;2023-01-29T03:13:15;101582.84;;;10.37;49.01
46690;BME280;32423;45.398;10.874;2023-01-29T03:16:16;101578.59;;;10.31;51.19
46690;BME280;32423;45.398;10.874;2023-01-29T03:19:13;101579.41;;;10.07;43.80
46690;BME280;32423;45.398;10.874;2023-01-29T03:22:06;101587.78;;;9.87;44.91
46690;BME280;32423;45.398;10.874;2023-01-29T03:25:02;101588.59;;;9.87;45.25
46690;BME280;32423;45.398;10.874;2023-01-29T03:28:13;101598.47;;;10.02;51.26
46690;BME280;32423;45.398;10.874;2023-01-29T03:31:23;101600.91;;;10.27;55.69
46690;BME280;32423;45.398;10.874;2023-01-29T03:34:33;101595.41;;;10.33;55.10
46690;BME280;32423;45.398;10.874;2023-01-29T03:37:28;101598.13;;;10.33;55.79
46690;BME280;32423;45.398;10.874;2023-01-29T03:40:24;101599.16;;;10.37;57.27
46690;BME280;32423;45.398;10.874;2023-01-29T03:43:24;101607.13;;;10.52;59.73
46690;BME280;32423;45.398;10.874;2023-01-29T03:49:19;101612.69;;;10.42;54.90
46690;BME280;32423;45.398;10.874;2023-01-29T03:55:23;101614.91;;;10.77;65.71
46690;BME280;32423;45.398;10.874;2023-01-29T04:01:41;101621.53;;;10.90;66.63
46690;BME280;32423;45.398;10.874;2023-01-29T04:04:35;101621.09;;;11.01;67.37
46690;BME280;32423;45.398;10.874;2023-01-29T04:07:28;101621.84;;;11.07;67.57
46690;BME280;32423;45.398;10.874;2023-01-29T04:10:25;101623.59;;;11.17;68.02
46690;BME280;32423;45.398;10.874;2023-01-29T04:13:17;101615.59;;;11.06;66.69
46690;BME280;32423;45.398;10.874;2023-01-29T04:16:09;101610.63;;;11.08;68.00
46690;BME280;32423;45.398;10.874;2023-01-29T04:19:27;101611.81;;;11.02;66.79
46690;BME280;32423;45.398;10.874;2023-01-29T04:22:19;101610.94;;;11.07;67.81
46690;BME280;32423;45.398;10.874;2023-01-29T04:25:12;101612.34;;;11.04;66.29
46690;BME280;32423;45.398;10.874;2023-01-29T04:31:04;101607.91;;;11.08;67.94
46690;BME280;32423;45.398;10.874;2023-01-29T04:37:05;101603.97;;;10.82;58.10
46690;BME280;32423;45.398;10.874;2023-01-29T04:40:11;101605.72;;;10.73;56.58
46690;BME280;32423;45.398;10.874;2023-01-29T04:43:07;101608.06;;;10.42;47.06
46690;BME280;32423;45.398;10.874;2023-01-29T04:46:10;101599.53;;;10.30;46.09
46690;BME280;32423;45.398;10.874;2023-01-29T04:49:05;101607.28;;;10.18;45.88
46690;BME280;32423;45.398;10.874;2023-01-29T04:52:07;101606.63;;;10.26;52.36
46690;BME280;32423;45.398;10.874;2023-01-29T04:58:01;101609.88;;;10.04;46.21
46690;BME280;32423;45.398;10.874;2023-01-29T05:00:54;101610.06;;;9.89;44.82
46690;BME280;32423;45.398;10.874;2023-01-29T05:03:49;101611.16;;;9.88;47.15
46690;BME280;32423;45.398;10.874;2023-01-29T05:06:41;101615.44;;;10.18;54.95
46690;BME280;32423;45.398;10.874;2023-01-29T05:09:31;101614.44;;;10.33;58.81
46690;BME280;32423;45.398;10.874;2023-01-29T05:12:24;101620.34;;;10.40;60.41
46690;BME280;32423;45.398;10.874;2023-01-29T05:15:22;101618.06;;;10.47;60.75
46690;BME280;32423;45.398;10.874;2023-01-29T05:18:15;101621.84;;;10.51;61.76
46690;BME280;32423;45.398;10.874;2023-01-29T05:21:08;101624.91;;;10.63;65.07
46690;BME280;32423;45.398;10.874;2023-01-29T05:24:12;101620.50;;;10.67;66.42
46690;BME280;32423;45.398;10.874;2023-01-29T05:27:05;101627.00;;;10.71;67.00
46690;BME280;32423;45.398;10.874;2023-01-29T05:30:11;101628.03;;;10.75;67.43
46690;BME280;32423;45.398;10.874;2023-01-29T05:33:00;101627.41;;;10.78;67.17
46690;BME280;32423;45.398;10.874;2023-01-29T05:35:52;101621.97;;;10.59;60.58
46690;BME280;32423;45.398;10.874;2023-01-29T05:38:44;101626.69;;;10.54;59.60
46690;BME280;32423;45.398;10.874;2023-01-29T05:41:36;101621.31;;;10.49;59.43
46690;BME280;32423;45.398;10.874;2023-01-29T05:44:28;101638.72;;;10.48;58.64
46690;BME280;32423;45.398;10.874;2023-01-29T05:47:20;101628.56;;;10.35;54.29
46690;BME280;32423;45.398;10.874;2023-01-29T05:50:12;101629.94;;;10.32;54.05
46690;BME280;32423;45.398;10.874;2023-01-29T05:53:04;101634.97;;;10.44;59.16
46690;BME280;32423;45.398;10.874;2023-01-29T05:55:57;101637.69;;;10.44;58.80
46690;BME280;32423;45.398;10.874;2023-01-29T05:58:51;101633.72;;;10.36;57.97
46690;BME280;32423;45.398;10.874;2023-01-29T06:01:43;101642.59;;;10.42;60.73
46690;BME280;32423;45.398;10.874;2023-01-29T06:04:35;101641.38;;;10.53;64.35
46690;BME280;32423;45.398;10.874;2023-01-29T06:07:27;101642.72;;;10.55;66.10
46690;BME280;32423;45.398;10.874;2023-01-29T06:10:19;101643.06;;;10.49;61.99
46690;BME280;32423;45.398;10.874;2023-01-29T06:13:11;101642.78;;;10.50;63.19
46690;BME280;32423;45.398;10.874;2023-01-29T06:16:06;101644.16;;;10.48;61.96
46690;BME280;32423;45.398;10.874;2023-01-29T06:18:57;101652.19;;;10.58;65.52
46690;BME280;32423;45.398;10.874;2023-01-29T06:21:48;101651.69;;;10.56;63.49
46690;BME280;32423;45.398;10.874;2023-01-29T06:24:41;101662.03;;;10.54;62.63
46690;BME280;32423;45.398;10.874;2023-01-29T06:27:33;101656.88;;;10.52;63.42
46690;BME280;32423;45.398;10.874;2023-01-29T06:30:25;101659.66;;;10.47;60.65
46690;BME280;32423;45.398;10.874;2023-01-29T06:33:17;101655.97;;;10.38;57.92
46690;BME280;32423;45.398;10.874;2023-01-29T06:36:09;101663.25;;;10.43;60.47
46690;BME280;32423;45.398;10.874;2023-01-29T06:39:01;101663.16;;;10.29;56.12
46690;BME280;32423;45.398;10.874;2023-01-29T06:41:53;101670.72;;;10.32;57.98
46690;BME280;32423;45.398;10.874;2023-01-29T06:44:45;101676.09;;;10.37;58.88
46690;BME280;32423;45.398;10.874;2023-01-29T06:47:37;101683.16;;;10.38;60.31
46690;BME280;32423;45.398;10.874;2023-01-29T06:50:30;101682.81;;;10.45;62.31
46690;BME280;32423;45.398;10.874;2023-01-29T06:53:22;101685.81;;;10.43;62.56
46690;BME280;32423;45.398;10.874;2023-01-29T06:56:13;101690.38;;;10.48;62.89
46690;BME280;32423;45.398;10.874;2023-01-29T06:59:03;101686.03;;;10.47;63.12
46690;BME280;32423;45.398;10.874;2023-01-29T07:01:55;101691.72;;;10.50;63.16
46690;BME280;32423;45.398;10.874;2023-01-29T07:04:47;101696.28;;;10.55;63.30
46690;BME280;32423;45.398;10.874;2023-01-29T07:07:39;101697.97;;;10.51;62.56
46690;BME280;32423;45.398;10.874;2023-01-29T07:10:31;101696.34;;;10.50;62.75
46690;BME280;32423;45.398;10.874;2023-01-29T07:13:23;101709.41;;;10.48;62.14
46690;BME280;32423;45.398;10.874;2023-01-29T07:16:16;101706.19;;;10.46;60.44
46690;BME280;32423;45.398;10.874;2023-01-29T07:19:08;101712.31;;;10.33;55.71
46690;BME280;32423;45.398;10.874;2023-01-29T07:22:00;101709.84;;;10.07;51.45
46690;BME280;32423;45.398;10.874;2023-01-29T07:24:55;101719.25;;;10.20;55.85
46690;BME280;32423;45.398;10.874;2023-01-29T07:27:47;101723.25;;;10.27;58.05
46690;BME280;32423;45.398;10.874;2023-01-29T07:30:38;101734.34;;;10.31;58.64
46690;BME280;32423;45.398;10.874;2023-01-29T07:33:30;101737.94;;;10.26;57.68
46690;BME280;32423;45.398;10.874;2023-01-29T07:36:20;101743.31;;;10.32;60.15
46690;BME280;32423;45.398;10.874;2023-01-29T07:39:12;101742.56;;;10.26;57.31
46690;BME280;32423;45.398;10.874;2023-01-29T07:42:04;101750.44;;;10.27;59.06
46690;BME280;32423;45.398;10.874;2023-01-29T07:44:56;101752.34;;;10.27;57.89
46690;BME280;32423;45.398;10.874;2023-01-29T07:47:46;101761.88;;;10.24;57.76
46690;BME280;32423;45.398;10.874;2023-01-29T07:50:42;101758.06;;;10.25;58.43
46690;BME280;32423;45.398;10.874;2023-01-29T07:53:32;101759.66;;;10.26;59.24
46690;BME280;32423;45.398;10.874;2023-01-29T07:56:26;101760.31;;;7.97;44.80
46690;BME280;32423;45.398;10.874;2023-01-29T07:59:18;101752.97;;;6.54;49.68
46690;BME280;32423;45.398;10.874;2023-01-29T08:02:13;101759.59;;;5.94;49.99
46690;BME280;32423;45.398;10.874;2023-01-29T08:05:05;101774.75;;;6.84;55.21
46690;BME280;32423;45.398;10.874;2023-01-29T08:07:56;101775.34;;;8.74;53.08
46690;BME280;32423;45.398;10.874;2023-01-29T08:10:48;101766.25;;;7.48;44.75
46690;BME280;32423;45.398;10.874;2023-01-29T08:13:43;101757.75;;;6.00;48.43
46690;BME280;32423;45.398;10.874;2023-01-29T08:16:35;101763.19;;;5.73;50.68
46690;BME280;32423;45.398;10.874;2023-01-29T08:19:29;101771.59;;;5.77;50.06
46690;BME280;32423;45.398;10.874;2023-01-29T08:22:24;101777.78;;;6.04;51.25
46690;BME280;32423;45.398;10.874;2023-01-29T08:25:14;101773.94;;;5.68;50.96
46690;BME280;32423;45.398;10.874;2023-01-29T08:28:06;101773.59;;;5.59;52.88
46690;BME280;32423;45.398;10.874;2023-01-29T08:31:01;101775.75;;;5.89;51.87
46690;BME280;32423;45.398;10.874;2023-01-29T08:33:56;101782.63;;;6.02;51.86
46690;BME280;32423;45.398;10.874;2023-01-29T08:36:50;101783.84;;;5.89;51.67
46690;BME280;32423;45.398;10.874;2023-01-29T08:39:44;101784.34;;;6.13;52.25
46690;BME280;32423;45.398;10.874;2023-01-29T08:42:36;101780.78;;;6.08;51.24
46690;BME280;32423;45.398;10.874;2023-01-29T08:45:31;101779.28;;;5.90;50.95
46690;BME280;32423;45.398;10.874;2023-01-29T08:48:26;101777.91;;;5.87;51.77
46690;BME280;32423;45.398;10.874;2023-01-29T08:51:21;101777.00;;;5.50;52.41
46690;BME280;32423;45.398;10.874;2023-01-29T08:54:13;101778.56;;;5.73;51.95
46690;BME280;32423;45.398;10.874;2023-01-29T08:57:08;101778.38;;;6.11;52.03
46690;BME280;32423;45.398;10.874;2023-01-29T09:00:02;101789.03;;;6.28;50.45
46690;BME280;32423;45.398;10.874;2023-01-29T09:02:57;101788.81;;;6.34;50.08
46690;BME280;32423;45.398;10.874;2023-01-29T09:05:51;101791.19;;;6.31;51.72
46690;BME280;32423;45.398;10.874;2023-01-29T09:08:42;101806.91;;;6.34;51.59
46690;BME280;32423;45.398;10.874;2023-01-29T09:11:36;101799.28;;;6.31;54.12
46690;BME280;32423;45.398;10.874;2023-01-29T09:14:26;101807.34;;;6.26;55.43
46690;BME280;32423;45.398;10.874;2023-01-29T09:17:21;101807.53;;;6.09;55.74
46690;BME280;32423;45.398;10.874;2023-01-29T09:20:15;101802.13;;;5.82;57.41
46690;BME280;32423;45.398;10.874;2023-01-29T09:23:10;101819.81;;;5.68;58.68
46690;BME280;32423;45.398;10.874;2023-01-29T09:26:05;101819.56;;;5.96;58.52
46690;BME280;32423;45.398;10.874;2023-01-29T09:28:57;101814.72;;;5.98;58.39
46690;BME280;32423;45.398;10.874;2023-01-29T09:31:52;101818.50;;;5.97;59.34
46690;BME280;32423;45.398;10.874;2023-01-29T09:34:44;101821.56;;;6.11;58.76
46690;BME280;32423;45.398;10.874;2023-01-29T09:37:38;101816.97;;;6.12;58.56
46690;BME280;32423;45.398;10.874;2023-01-29T09:40:57;101828.50;;;6.34;57.94
46690;BME280;32423;45.398;10.874;2023-01-29T09:44:02;101827.22;;;6.47;58.25
46690;BME280;32423;45.398;10.874;2023-01-29T09:46:57;101818.31;;;6.46;58.14
46690;BME280;32423;45.398;10.874;2023-01-29T10:12:38;101802.91;;;6.99;57.23
46690;BME280;32423;45.398;10.874;2023-01-29T10:15:40;101802.34;;;6.97;57.91
46690;BME280;32423;45.398;10.874;2023-01-29T10:18:59;101795.84;;;6.93;57.42
46690;BME280;32423;45.398;10.874;2023-01-29T10:25:15;101792.13;;;7.04;54.64
46690;BME280;32423;45.398;10.874;2023-01-29T10:28:17;101790.47;;;6.98;52.49
46690;BME280;32423;45.398;10.874;2023-01-29T10:31:14;101784.75;;;6.89;53.09
46690;BME280;32423;45.398;10.874;2023-01-29T10:34:14;101784.56;;;7.06;52.96
46690;BME280;32423;45.398;10.874;2023-01-29T10:37:18;101775.34;;;7.07;51.59
46690;BME280;32423;45.398;10.874;2023-01-29T10:40:36;101772.19;;;7.30;51.96
46690;BME280;32423;45.398;10.874;2023-01-29T10:50:09;101755.97;;;7.50;51.51
46690;BME280;32423;45.398;10.874;2023-01-29T10:56:42;101756.50;;;7.42;51.40
46690;BME280;32423;45.398;10.874;2023-01-29T11:02:55;101737.28;;;7.49;51.29
46690;BME280;32423;45.398;10.874;2023-01-29T11:12:17;101721.31;;;7.78;50.38
46690;BME280;32423;45.398;10.874;2023-01-29T11:15:25;101717.84;;;7.77;51.36
46690;BME280;32423;45.398;10.874;2023-01-29T11:18:19;101708.34;;;7.69;51.14
46690;BME280;32423;45.398;10.874;2023-01-29T11:21:13;101704.56;;;7.70;50.66
46690;BME280;32423;45.398;10.874;2023-01-29T11:24:12;101693.19;;;7.73;51.60
46690;BME280;32423;45.398;10.874;2023-01-29T11:27:34;101692.06;;;7.95;50.60
46690;BME280;32423;45.398;10.874;2023-01-29T11:30:30;101684.19;;;8.03;51.18
46690;BME280;32423;45.398;10.874;2023-01-29T11:33:25;101675.28;;;7.78;51.16
46690;BME280;32423;45.398;10.874;2023-01-29T11:36:30;101664.38;;;8.18;50.04
46690;BME280;32423;45.398;10.874;2023-01-29T11:39:27;101657.94;;;7.99;48.93
46690;BME280;32423;45.398;10.874;2023-01-29T11:42:25;101665.28;;;7.73;50.37
46690;BME280;32423;45.398;10.874;2023-01-29T11:45:26;101655.22;;;8.04;49.03
46690;BME280;32423;45.398;10.874;2023-01-29T11:48:22;101644.97;;;7.91;50.46
46690;BME280;32423;45.398;10.874;2023-01-29T11:51:21;101642.22;;;8.06;49.80
46690;BME280;32423;45.398;10.874;2023-01-29T11:54:16;101636.75;;;8.21;50.13
46690;BME280;32423;45.398;10.874;2023-01-29T11:57:18;101631.06;;;8.33;49.55
46690;BME280;32423;45.398;10.874;2023-01-29T12:00:21;101615.41;;;8.64;48.20
46690;BME280;32423;45.398;10.874;2023-01-29T12:03:37;101622.97;;;8.18;50.69
46690;BME280;32423;45.398;10.874;2023-01-29T12:06:37;101615.22;;;8.94;48.50
46690;BME280;32423;45.398;10.874;2023-01-29T12:09:35;101615.06;;;9.48;46.87
46690;BME280;32423;45.398;10.874;2023-01-29T12:12:35;101617.59;;;9.68;50.36
46690;BME280;32423;45.398;10.874;2023-01-29T12:15:29;101613.19;;;9.15;50.18
46690;BME280;32423;45.398;10.874;2023-01-29T12:18:32;101608.69;;;9.00;50.08
46690;BME280;32423;45.398;10.874;2023-01-29T12:22:00;101607.06;;;8.99;49.85
46690;BME280;32423;45.398;10.874;2023-01-29T12:24:58;101612.81;;;8.92;48.44
46690;BME280;32423;45.398;10.874;2023-01-29T12:27:57;101601.63;;;8.99;49.33
46690;BME280;32423;45.398;10.874;2023-01-29T12:34:01;101597.31;;;8.98;47.00
46690;BME280;32423;45.398;10.874;2023-01-29T12:37:15;101588.38;;;8.97;49.44
46690;BME280;32423;45.398;10.874;2023-01-29T12:40:15;101588.88;;;8.99;48.53
46690;BME280;32423;45.398;10.874;2023-01-29T12:43:16;101579.53;;;8.82;47.08
46690;BME280;32423;45.398;10.874;2023-01-29T12:46:11;101579.84;;;8.75;46.04
46690;BME280;32423;45.398;10.874;2023-01-29T12:49:12;101588.56;;;8.67;45.84
46690;BME280;32423;45.398;10.874;2023-01-29T12:52:12;101582.81;;;8.74;45.94
46690;BME280;32423;45.398;10.874;2023-01-29T12:58:10;101574.69;;;8.74;46.70
46690;BME280;32423;45.398;10.874;2023-01-29T13:01:12;101574.41;;;8.75;47.17
46690;BME280;32423;45.398;10.874;2023-01-29T13:04:08;101573.59;;;8.75;48.38
46690;BME280;32423;45.398;10.874;2023-01-29T13:07:13;101566.44;;;8.89;47.12
46690;BME280;32423;45.398;10.874;2023-01-29T13:10:13;101559.25;;;9.08;47.14
46690;BME280;32423;45.398;10.874;2023-01-29T13:16:27;101559.47;;;9.40;46.61
46690;BME280;32423;45.398;10.874;2023-01-29T13:19:40;101555.31;;;9.53;47.18
46690;BME280;32423;45.398;10.874;2023-01-29T13:22:36;101545.66;;;9.66;46.57
46690;BME280;32423;45.398;10.874;2023-01-29T13:25:31;101534.72;;;9.71;45.73
46690;BME280;32423;45.398;10.874;2023-01-29T13:28:29;101521.28;;;9.84;46.49
46690;BME280;32423;45.398;10.874;2023-01-29T13:31:34;101527.28;;;9.81;45.90
46690;BME280;32423;45.398;10.874;2023-01-29T13:34:28;101529.59;;;9.93;45.65
46690;BME280;32423;45.398;10.874;2023-01-29T13:37:37;101526.44;;;10.05;45.27
46690;BME280;32423;45.398;10.874;2023-01-29T13:40:35;101526.66;;;10.08;44.45
46690;BME280;32423;45.398;10.874;2023-01-29T13:43:27;101529.09;;;10.10;45.17
46690;BME280;32423;45.398;10.874;2023-01-29T13:46:26;101527.09;;;10.20;43.67
46690;BME280;32423;45.398;10.874;2023-01-29T13:49:48;101520.78;;;10.25;43.98
46690;BME280;32423;45.398;10.874;2023-01-29T13:53:55;101524.94;;;10.17;43.75
46690;BME280;32423;45.398;10.874;2023-01-29T13:59:55;101519.00;;;10.34;43.51
46690;BME280;32423;45.398;10.874;2023-01-29T14:03:31;101527.31;;;10.24;43.27
46690;BME280;32423;45.398;10.874;2023-01-29T14:06:05;101518.28;;;10.28;44.07
46690;BME280;32423;45.398;10.874;2023-01-29T14:09:00;101514.63;;;10.14;43.19
46690;BME280;32423;45.398;10.874;2023-01-29T14:11:51;101519.81;;;10.11;44.24
46690;BME280;32423;45.398;10.874;2023-01-29T14:14:58;101516.09;;;10.07;43.71
46690;BME280;32423;45.398;10.874;2023-01-29T14:18:15;101513.25;;;10.17;43.96
46690;BME280;32423;45.398;10.874;2023-01-29T14:21:25;101510.13;;;10.28;44.16
46690;BME280;32423;45.398;10.874;2023-01-29T14:24:19;101509.22;;;10.33;43.74
46690;BME280;32423;45.398;10.874;2023-01-29T14:27:21;101503.94;;;10.42;43.35
46690;BME280;32423;45.398;10.874;2023-01-29T14:30:16;101496.59;;;10.42;43.04
46690;BME280;32423;45.398;10.874;2023-01-29T14:33:26;101495.19;;;10.45;42.84
46690;BME280;32423;45.398;10.874;2023-01-29T14:36:22;101497.13;;;10.44;44.22
46690;BME280;32423;45.398;10.874;2023-01-29T14:39:30;101492.47;;;10.45;44.31
46690;BME280;32423;45.398;10.874;2023-01-29T14:45:24;101505.84;;;10.60;43.81
46690;BME280;32423;45.398;10.874;2023-01-29T14:48:34;101498.34;;;10.52;43.78
46690;BME280;32423;45.398;10.874;2023-01-29T14:51:33;101506.22;;;10.53;44.17
46690;BME280;32423;45.398;10.874;2023-01-29T14:54:32;101506.72;;;10.55;44.31
46690;BME280;32423;45.398;10.874;2023-01-29T14:57:30;101506.81;;;10.50;43.56
46690;BME280;32423;45.398;10.874;2023-01-29T15:00:28;101512.19;;;10.55;43.44
46690;BME280;32423;45.398;10.874;2023-01-29T15:03:28;101507.63;;;10.51;44.41
46690;BME280;32423;45.398;10.874;2023-01-29T15:06:51;101504.91;;;10.51;44.10
46690;BME280;32423;45.398;10.874;2023-01-29T15:09:54;101504.91;;;10.51;44.83
46690;BME280;32423;45.398;10.874;2023-01-29T15:16:10;101491.06;;;10.47;44.38
46690;BME280;32423;45.398;10.874;2023-01-29T15:19:20;101498.41;;;10.47;44.48
46690;BME280;32423;45.398;10.874;2023-01-29T15:22:21;101499.81;;;10.44;44.75
46690;BME280;32423;45.398;10.874;2023-01-29T15:25:17;101496.16;;;10.35;44.18
46690;BME280;32423;45.398;10.874;2023-01-29T15:28:11;101497.84;;;10.31;44.22
46690;BME280;32423;45.398;10.874;2023-01-29T15:31:06;101501.28;;;10.37;44.27
46690;BME280;32423;45.398;10.874;2023-01-29T15:34:05;101492.97;;;10.47;44.11
46690;BME280;32423;45.398;10.874;2023-01-29T15:36:58;101493.94;;;10.56;43.84
46690;BME280;32423;45.398;10.874;2023-01-29T15:39:47;101494.84;;;10.51;43.43
46690;BME280;32423;45.398;10.874;2023-01-29T15:42:44;101504.69;;;10.28;44.00
46690;BME280;32423;45.398;10.874;2023-01-29T15:45:41;101511.28;;;10.22;44.41
46690;BME280;32423;45.398;10.874;2023-01-29T15:48:41;101509.56;;;10.08;44.57
46690;BME280;32423;45.398;10.874;2023-01-29T15:51:37;101514.94;;;10.32;44.26
46690;BME280;32423;45.398;10.874;2023-01-29T15:54:28;101515.56;;;10.28;44.40
46690;BME280;32423;45.398;10.874;2023-01-29T15:57:30;101514.13;;;10.31;44.40
46690;BME280;32423;45.398;10.874;2023-01-29T16:00:30;101514.03;;;10.41;44.24
46690;BME280;32423;45.398;10.874;2023-01-29T16:03:26;101518.00;;;10.30;44.63
46690;BME280;32423;45.398;10.874;2023-01-29T16:06:21;101518.47;;;10.32;44.49
46690;BME280;32423;45.398;10.874;2023-01-29T16:09:19;101513.94;;;10.27;44.55
46690;BME280;32423;45.398;10.874;2023-01-29T16:12:14;101518.63;;;10.22;44.84
46690;BME280;32423;45.398;10.874;2023-01-29T16:15:05;101514.63;;;10.14;44.80
46690;BME280;32423;45.398;10.874;2023-01-29T16:18:04;101516.25;;;10.15;44.89
46690;BME280;32423;45.398;10.874;2023-01-29T16:24:19;101518.13;;;9.96;44.32
46690;BME280;32423;45.398;10.874;2023-01-29T16:27:15;101507.56;;;9.95;44.75
46690;BME280;32423;45.398;10.874;2023-01-29T16:30:04;101512.56;;;10.06;44.57
46690;BME280;32423;45.398;10.874;2023-01-29T16:32:59;101505.28;;;10.02;44.72
46690;BME280;32423;45.398;10.874;2023-01-29T16:35:52;101500.59;;;10.07;44.84
46690;BME280;32423;45.398;10.874;2023-01-29T16:38:44;101505.88;;;9.99;44.77
46690;BME280;32423;45.398;10.874;2023-01-29T16:41:34;101506.69;;;8.99;47.29
46690;BME280;32423;45.398;10.874;2023-01-29T16:44:33;101505.81;;;8.75;48.77
46690;BME280;32423;45.398;10.874;2023-01-29T16:53:21;101517.56;;;9.52;46.42
46690;BME280;32423;45.398;10.874;2023-01-29T16:56:10;101531.09;;;9.57;46.19
46690;BME280;32423;45.398;10.874;2023-01-29T16:59:02;101525.88;;;9.08;46.99